sensor_id;sensor_type;location;lat;lon;timestamp;P1;durP1;ratioP1;P2;durP2;ratioP2
36593;SDS011;22603;47.900;8.146;2023-03-18T00:02:13;2.00;;;0.90;;
36593;SDS011;22603;47.900;8.146;2023-03-18T00:05:01;11.43;;;1.13;;
36593;SDS011;22603;47.900;8.146;2023-03-18T00:07:48;4.70;;;1.23;;
36593;SDS011;22603;47.900;8.146;2023-03-18T00:10:37;1.10;;;0.70;;
36593;SDS011;22603;47.900;8.146;2023-03-18T00:13:24;2.53;;;0.87;;
36593;SDS011;22603;47.900;8.146;2023-03-18T00:16:12;3.87;;;1.23;;
36593;SDS011;22603;47.900;8.146;2023-03-18T00:19:01;3.73;;;0.90;;
36593;SDS011;22603;47.900;8.146;2023-03-18T00:21:49;1.67;;;0.80;;
36593;SDS011;22603;47.900;8.146;2023-03-18T00:24:36;2.03;;;0.87;;
36593;SDS011;22603;47.900;8.146;2023-03-18T00:27:24;3.70;;;1.13;;
36593;SDS011;22603;47.900;8.146;2023-03-18T00:30:12;2.97;;;1.00;;
36593;SDS011;22603;47.900;8.146;2023-03-18T00:33:00;2.17;;;0.90;;
36593;SDS011;22603;47.900;8.146;2023-03-18T00:35:47;1.67;;;0.97;;
36593;SDS011;22603;47.900;8.146;2023-03-18T00:38:34;2.57;;;0.80;;
36593;SDS011;22603;47.900;8.146;2023-03-18T00:41:22;1.77;;;1.20;;
36593;SDS011;22603;47.900;8.146;2023-03-18T00:44:12;3.23;;;1.10;;
36593;SDS011;22603;47.900;8.146;2023-03-18T00:46:59;1.93;;;0.93;;
36593;SDS011;22603;47.900;8.146;2023-03-18T00:49:46;5.43;;;1.20;;
36593;SDS011;22603;47.900;8.146;2023-03-18T00:52:33;3.73;;;1.10;;
36593;SDS011;22603;47.900;8.146;2023-03-18T00:55:21;1.27;;;0.70;;
36593;SDS011;22603;47.900;8.146;2023-03-18T00:58:08;1.20;;;0.80;;
36593;SDS011;22603;47.900;8.146;2023-03-18T01:00:58;2.93;;;1.37;;
36593;SDS011;22603;47.900;8.146;2023-03-18T01:03:45;0.90;;;0.70;;
36593;SDS011;22603;47.900;8.146;2023-03-18T01:06:34;4.07;;;1.20;;
36593;SDS011;22603;47.900;8.146;2023-03-18T01:09:22;3.80;;;1.13;;
36593;SDS011;22603;47.900;8.146;2023-03-18T01:12:10;2.27;;;0.90;;
36593;SDS011;22603;47.900;8.146;2023-03-18T01:14:57;4.20;;;1.33;;
36593;SDS011;22603;47.900;8.146;2023-03-18T01:17:46;2.10;;;1.10;;
36593;SDS011;22603;47.900;8.146;2023-03-18T01:20:34;2.77;;;1.20;;
36593;SDS011;22603;47.900;8.146;2023-03-18T01:23:22;2.17;;;1.03;;
36593;SDS011;22603;47.900;8.146;2023-03-18T01:26:09;4.00;;;1.30;;
36593;SDS011;22603;47.900;8.146;2023-03-18T01:28:56;2.70;;;1.27;;
36593;SDS011;22603;47.900;8.146;2023-03-18T01:31:44;3.83;;;0.70;;
36593;SDS011;22603;47.900;8.146;2023-03-18T01:34:32;3.17;;;1.20;;
36593;SDS011;22603;47.900;8.146;2023-03-18T01:37:19;20.13;;;4.67;;
36593;SDS011;22603;47.900;8.146;2023-03-18T01:40:07;17.53;;;4.60;;
36593;SDS011;22603;47.900;8.146;2023-03-18T01:42:58;33.23;;;8.87;;
36593;SDS011;22603;47.900;8.146;2023-03-18T01:45:57;14.37;;;4.03;;
36593;SDS011;22603;47.900;8.146;2023-03-18T01:49:09;9.80;;;3.27;;
36593;SDS011;22603;47.900;8.146;2023-03-18T01:52:00;11.87;;;3.53;;
36593;SDS011;22603;47.900;8.146;2023-03-18T01:54:51;25.90;;;6.20;;
36593;SDS011;22603;47.900;8.146;2023-03-18T01:57:43;28.20;;;6.93;;
36593;SDS011;22603;47.900;8.146;2023-03-18T02:00:32;25.17;;;6.60;;
36593;SDS011;22603;47.900;8.146;2023-03-18T02:03:20;27.53;;;7.10;;
36593;SDS011;22603;47.900;8.146;2023-03-18T02:06:07;20.27;;;5.67;;
36593;SDS011;22603;47.900;8.146;2023-03-18T02:08:56;25.40;;;5.47;;
36593;SDS011;22603;47.900;8.146;2023-03-18T02:11:45;19.27;;;4.13;;
36593;SDS011;22603;47.900;8.146;2023-03-18T02:14:34;11.80;;;2.83;;
36593;SDS011;22603;47.900;8.146;2023-03-18T02:17:22;9.10;;;2.50;;
36593;SDS011;22603;47.900;8.146;2023-03-18T02:20:15;5.17;;;1.63;;
36593;SDS011;22603;47.900;8.146;2023-03-18T02:23:14;6.43;;;1.50;;
36593;SDS011;22603;47.900;8.146;2023-03-18T02:26:12;12.83;;;4.10;;
36593;SDS011;22603;47.900;8.146;2023-03-18T02:29:08;6.53;;;1.40;;
36593;SDS011;22603;47.900;8.146;2023-03-18T02:31:59;6.47;;;1.97;;
36593;SDS011;22603;47.900;8.146;2023-03-18T02:34:48;10.10;;;2.57;;
36593;SDS011;22603;47.900;8.146;2023-03-18T02:37:35;8.53;;;2.30;;
36593;SDS011;22603;47.900;8.146;2023-03-18T02:40:24;10.77;;;2.07;;
36593;SDS011;22603;47.900;8.146;2023-03-18T02:43:14;9.07;;;2.33;;
36593;SDS011;22603;47.900;8.146;2023-03-18T02:49:16;10.13;;;2.50;;
36593;SDS011;22603;47.900;8.146;2023-03-18T02:52:04;8.70;;;2.47;;
36593;SDS011;22603;47.900;8.146;2023-03-18T02:54:51;5.47;;;1.80;;
36593;SDS011;22603;47.900;8.146;2023-03-18T02:57:42;5.83;;;1.57;;
36593;SDS011;22603;47.900;8.146;2023-03-18T03:00:29;5.63;;;1.63;;
36593;SDS011;22603;47.900;8.146;2023-03-18T03:03:18;7.50;;;1.97;;
36593;SDS011;22603;47.900;8.146;2023-03-18T03:06:05;6.73;;;2.20;;
36593;SDS011;22603;47.900;8.146;2023-03-18T03:08:53;3.47;;;1.30;;
36593;SDS011;22603;47.900;8.146;2023-03-18T03:11:41;4.60;;;1.50;;
36593;SDS011;22603;47.900;8.146;2023-03-18T03:14:30;6.03;;;1.93;;
36593;SDS011;22603;47.900;8.146;2023-03-18T03:17:18;3.53;;;1.20;;
36593;SDS011;22603;47.900;8.146;2023-03-18T03:20:06;3.90;;;1.23;;
36593;SDS011;22603;47.900;8.146;2023-03-18T03:22:54;1.80;;;1.00;;
36593;SDS011;22603;47.900;8.146;2023-03-18T03:25:42;6.83;;;1.10;;
36593;SDS011;22603;47.900;8.146;2023-03-18T03:28:30;8.33;;;2.37;;
36593;SDS011;22603;47.900;8.146;2023-03-18T03:31:17;11.40;;;2.60;;
36593;SDS011;22603;47.900;8.146;2023-03-18T03:34:05;6.27;;;1.50;;
36593;SDS011;22603;47.900;8.146;2023-03-18T03:36:53;5.47;;;1.13;;
36593;SDS011;22603;47.900;8.146;2023-03-18T03:39:40;5.33;;;1.70;;
36593;SDS011;22603;47.900;8.146;2023-03-18T03:42:28;6.33;;;1.60;;
36593;SDS011;22603;47.900;8.146;2023-03-18T03:45:16;3.40;;;1.30;;
36593;SDS011;22603;47.900;8.146;2023-03-18T03:48:04;6.73;;;1.43;;
36593;SDS011;22603;47.900;8.146;2023-03-18T03:50:51;3.33;;;1.20;;
36593;SDS011;22603;47.900;8.146;2023-03-18T03:53:39;3.63;;;0.97;;
36593;SDS011;22603;47.900;8.146;2023-03-18T03:56:27;4.50;;;1.23;;
36593;SDS011;22603;47.900;8.146;2023-03-18T03:59:15;2.30;;;1.07;;
36593;SDS011;22603;47.900;8.146;2023-03-18T04:02:02;5.17;;;1.10;;
36593;SDS011;22603;47.900;8.146;2023-03-18T04:04:50;3.47;;;1.10;;
36593;SDS011;22603;47.900;8.146;2023-03-18T04:07:37;4.67;;;1.20;;
36593;SDS011;22603;47.900;8.146;2023-03-18T04:10:26;12.93;;;3.07;;
36593;SDS011;22603;47.900;8.146;2023-03-18T04:13:13;9.37;;;2.40;;
36593;SDS011;22603;47.900;8.146;2023-03-18T04:16:01;5.13;;;1.63;;
36593;SDS011;22603;47.900;8.146;2023-03-18T04:18:48;3.60;;;1.40;;
36593;SDS011;22603;47.900;8.146;2023-03-18T04:21:35;2.57;;;1.00;;
36593;SDS011;22603;47.900;8.146;2023-03-18T04:24:23;3.93;;;1.20;;
36593;SDS011;22603;47.900;8.146;2023-03-18T04:27:11;3.43;;;1.40;;
36593;SDS011;22603;47.900;8.146;2023-03-18T04:29:58;4.70;;;1.17;;
36593;SDS011;22603;47.900;8.146;2023-03-18T04:32:45;3.63;;;1.27;;
36593;SDS011;22603;47.900;8.146;2023-03-18T04:35:32;3.00;;;1.30;;
36593;SDS011;22603;47.900;8.146;2023-03-18T04:38:19;3.87;;;1.13;;
36593;SDS011;22603;47.900;8.146;2023-03-18T04:41:06;1.83;;;0.90;;
36593;SDS011;22603;47.900;8.146;2023-03-18T04:43:55;1.07;;;0.73;;
36593;SDS011;22603;47.900;8.146;2023-03-18T04:46:43;3.67;;;1.20;;
36593;SDS011;22603;47.900;8.146;2023-03-18T04:49:30;4.73;;;1.40;;
36593;SDS011;22603;47.900;8.146;2023-03-18T04:52:17;4.10;;;1.50;;
36593;SDS011;22603;47.900;8.146;2023-03-18T04:55:04;3.33;;;1.10;;
36593;SDS011;22603;47.900;8.146;2023-03-18T04:57:53;1.60;;;0.90;;
36593;SDS011;22603;47.900;8.146;2023-03-18T05:00:42;4.47;;;1.57;;
36593;SDS011;22603;47.900;8.146;2023-03-18T05:03:29;2.67;;;1.30;;
36593;SDS011;22603;47.900;8.146;2023-03-18T05:06:20;8.80;;;1.27;;
36593;SDS011;22603;47.900;8.146;2023-03-18T05:09:09;2.83;;;1.43;;
36593;SDS011;22603;47.900;8.146;2023-03-18T05:11:56;7.37;;;1.00;;
36593;SDS011;22603;47.900;8.146;2023-03-18T05:14:44;4.87;;;1.20;;
36593;SDS011;22603;47.900;8.146;2023-03-18T05:17:32;4.23;;;1.53;;
36593;SDS011;22603;47.900;8.146;2023-03-18T05:20:20;2.20;;;1.13;;
36593;SDS011;22603;47.900;8.146;2023-03-18T05:23:08;2.83;;;1.10;;
36593;SDS011;22603;47.900;8.146;2023-03-18T05:25:55;20.70;;;6.70;;
36593;SDS011;22603;47.900;8.146;2023-03-18T05:28:42;20.57;;;4.73;;
36593;SDS011;22603;47.900;8.146;2023-03-18T05:31:29;5.67;;;1.90;;
36593;SDS011;22603;47.900;8.146;2023-03-18T05:34:18;5.97;;;1.33;;
36593;SDS011;22603;47.900;8.146;2023-03-18T05:37:05;2.13;;;1.10;;
36593;SDS011;22603;47.900;8.146;2023-03-18T05:39:54;3.23;;;1.20;;
36593;SDS011;22603;47.900;8.146;2023-03-18T05:42:46;1.90;;;1.07;;
36593;SDS011;22603;47.900;8.146;2023-03-18T05:45:40;2.40;;;1.10;;
36593;SDS011;22603;47.900;8.146;2023-03-18T05:48:28;1.93;;;1.00;;
36593;SDS011;22603;47.900;8.146;2023-03-18T05:51:16;3.00;;;1.00;;
36593;SDS011;22603;47.900;8.146;2023-03-18T05:54:04;1.97;;;1.10;;
36593;SDS011;22603;47.900;8.146;2023-03-18T05:56:51;3.97;;;1.20;;
36593;SDS011;22603;47.900;8.146;2023-03-18T05:59:45;2.40;;;1.10;;
36593;SDS011;22603;47.900;8.146;2023-03-18T06:02:32;2.33;;;1.10;;
36593;SDS011;22603;47.900;8.146;2023-03-18T06:05:19;3.37;;;1.10;;
36593;SDS011;22603;47.900;8.146;2023-03-18T06:08:08;4.00;;;1.10;;
36593;SDS011;22603;47.900;8.146;2023-03-18T06:10:55;5.20;;;1.47;;
36593;SDS011;22603;47.900;8.146;2023-03-18T06:13:42;3.87;;;1.40;;
36593;SDS011;22603;47.900;8.146;2023-03-18T06:16:30;3.23;;;1.13;;
36593;SDS011;22603;47.900;8.146;2023-03-18T06:19:18;4.20;;;1.03;;
36593;SDS011;22603;47.900;8.146;2023-03-18T06:22:05;2.77;;;1.10;;
36593;SDS011;22603;47.900;8.146;2023-03-18T06:24:56;1.70;;;0.87;;
36593;SDS011;22603;47.900;8.146;2023-03-18T06:27:48;2.67;;;1.10;;
36593;SDS011;22603;47.900;8.146;2023-03-18T06:30:38;3.37;;;1.37;;
36593;SDS011;22603;47.900;8.146;2023-03-18T06:33:25;2.83;;;1.10;;
36593;SDS011;22603;47.900;8.146;2023-03-18T06:36:13;2.97;;;1.37;;
36593;SDS011;22603;47.900;8.146;2023-03-18T06:39:02;5.77;;;1.50;;
36593;SDS011;22603;47.900;8.146;2023-03-18T06:41:54;1.67;;;0.80;;
36593;SDS011;22603;47.900;8.146;2023-03-18T06:44:42;1.87;;;1.13;;
36593;SDS011;22603;47.900;8.146;2023-03-18T06:47:34;2.13;;;1.07;;
36593;SDS011;22603;47.900;8.146;2023-03-18T06:50:21;7.17;;;1.47;;
36593;SDS011;22603;47.900;8.146;2023-03-18T06:53:09;4.57;;;1.40;;
36593;SDS011;22603;47.900;8.146;2023-03-18T06:55:56;2.33;;;1.07;;
36593;SDS011;22603;47.900;8.146;2023-03-18T06:58:45;4.53;;;1.60;;
36593;SDS011;22603;47.900;8.146;2023-03-18T07:01:33;4.20;;;1.50;;
36593;SDS011;22603;47.900;8.146;2023-03-18T07:04:20;2.40;;;1.10;;
36593;SDS011;22603;47.900;8.146;2023-03-18T07:07:08;3.27;;;1.50;;
36593;SDS011;22603;47.900;8.146;2023-03-18T07:09:55;4.17;;;1.40;;
36593;SDS011;22603;47.900;8.146;2023-03-18T07:12:43;6.30;;;1.50;;
36593;SDS011;22603;47.900;8.146;2023-03-18T07:15:33;6.23;;;1.57;;
36593;SDS011;22603;47.900;8.146;2023-03-18T07:18:23;4.90;;;1.60;;
36593;SDS011;22603;47.900;8.146;2023-03-18T07:21:10;4.40;;;1.60;;
36593;SDS011;22603;47.900;8.146;2023-03-18T07:23:57;3.58;;;1.48;;
36593;SDS011;22603;47.900;8.146;2023-03-18T07:26:44;5.68;;;1.60;;
36593;SDS011;22603;47.900;8.146;2023-03-18T07:29:34;3.53;;;1.50;;
36593;SDS011;22603;47.900;8.146;2023-03-18T07:32:23;4.23;;;1.53;;
36593;SDS011;22603;47.900;8.146;2023-03-18T07:35:11;3.63;;;1.53;;
36593;SDS011;22603;47.900;8.146;2023-03-18T07:37:59;3.77;;;1.37;;
36593;SDS011;22603;47.900;8.146;2023-03-18T07:40:46;5.00;;;1.40;;
36593;SDS011;22603;47.900;8.146;2023-03-18T07:43:34;3.40;;;1.23;;
36593;SDS011;22603;47.900;8.146;2023-03-18T07:46:22;21.47;;;2.43;;
36593;SDS011;22603;47.900;8.146;2023-03-18T07:49:11;5.63;;;1.97;;
36593;SDS011;22603;47.900;8.146;2023-03-18T07:51:58;2.83;;;1.37;;
36593;SDS011;22603;47.900;8.146;2023-03-18T07:54:46;4.25;;;1.65;;
36593;SDS011;22603;47.900;8.146;2023-03-18T07:57:33;3.20;;;1.45;;
36593;SDS011;22603;47.900;8.146;2023-03-18T08:00:21;6.00;;;1.70;;
36593;SDS011;22603;47.900;8.146;2023-03-18T08:03:10;3.15;;;1.60;;
36593;SDS011;22603;47.900;8.146;2023-03-18T08:05:59;4.07;;;1.40;;
36593;SDS011;22603;47.900;8.146;2023-03-18T08:08:46;5.88;;;1.70;;
36593;SDS011;22603;47.900;8.146;2023-03-18T08:11:34;5.25;;;1.73;;
36593;SDS011;22603;47.900;8.146;2023-03-18T08:14:22;2.10;;;1.20;;
36593;SDS011;22603;47.900;8.146;2023-03-18T08:17:09;4.45;;;1.35;;
36593;SDS011;22603;47.900;8.146;2023-03-18T08:19:57;5.22;;;1.50;;
36593;SDS011;22603;47.900;8.146;2023-03-18T08:22:45;4.15;;;1.23;;
36593;SDS011;22603;47.900;8.146;2023-03-18T08:25:32;3.67;;;1.20;;
36593;SDS011;22603;47.900;8.146;2023-03-18T08:28:19;4.72;;;1.17;;
36593;SDS011;22603;47.900;8.146;2023-03-18T08:31:06;3.65;;;1.50;;
36593;SDS011;22603;47.900;8.146;2023-03-18T08:33:54;4.15;;;1.27;;
36593;SDS011;22603;47.900;8.146;2023-03-18T08:36:43;3.90;;;1.30;;
36593;SDS011;22603;47.900;8.146;2023-03-18T08:39:31;3.72;;;1.00;;
36593;SDS011;22603;47.900;8.146;2023-03-18T08:42:19;2.83;;;0.90;;
36593;SDS011;22603;47.900;8.146;2023-03-18T08:45:06;3.53;;;1.13;;
36593;SDS011;22603;47.900;8.146;2023-03-18T08:47:54;4.40;;;1.15;;
36593;SDS011;22603;47.900;8.146;2023-03-18T08:50:44;2.13;;;0.90;;
36593;SDS011;22603;47.900;8.146;2023-03-18T08:53:31;5.18;;;1.92;;
36593;SDS011;22603;47.900;8.146;2023-03-18T08:56:19;4.55;;;1.38;;
36593;SDS011;22603;47.900;8.146;2023-03-18T08:59:06;2.55;;;1.08;;
36593;SDS011;22603;47.900;8.146;2023-03-18T09:01:56;4.53;;;1.60;;
36593;SDS011;22603;47.900;8.146;2023-03-18T09:04:43;3.70;;;1.40;;
36593;SDS011;22603;47.900;8.146;2023-03-18T09:07:32;6.22;;;1.52;;
36593;SDS011;22603;47.900;8.146;2023-03-18T09:10:19;10.35;;;3.33;;
36593;SDS011;22603;47.900;8.146;2023-03-18T09:13:07;14.23;;;4.53;;
36593;SDS011;22603;47.900;8.146;2023-03-18T09:15:54;11.63;;;4.00;;
36593;SDS011;22603;47.900;8.146;2023-03-18T09:18:41;2.35;;;1.15;;
36593;SDS011;22603;47.900;8.146;2023-03-18T09:21:32;2.90;;;0.77;;
36593;SDS011;22603;47.900;8.146;2023-03-18T09:24:19;2.55;;;0.80;;
36593;SDS011;22603;47.900;8.146;2023-03-18T09:27:09;3.60;;;0.85;;
36593;SDS011;22603;47.900;8.146;2023-03-18T09:29:58;0.82;;;0.65;;
36593;SDS011;22603;47.900;8.146;2023-03-18T09:32:45;1.13;;;0.90;;
36593;SDS011;22603;47.900;8.146;2023-03-18T09:35:34;3.67;;;0.98;;
36593;SDS011;22603;47.900;8.146;2023-03-18T09:38:22;2.25;;;0.73;;
36593;SDS011;22603;47.900;8.146;2023-03-18T09:41:13;3.03;;;1.08;;
36593;SDS011;22603;47.900;8.146;2023-03-18T09:44:11;2.60;;;0.80;;
36593;SDS011;22603;47.900;8.146;2023-03-18T09:47:10;2.72;;;0.98;;
36593;SDS011;22603;47.900;8.146;2023-03-18T09:50:11;1.10;;;0.60;;
36593;SDS011;22603;47.900;8.146;2023-03-18T09:53:09;2.08;;;0.90;;
36593;SDS011;22603;47.900;8.146;2023-03-18T09:56:02;1.08;;;0.70;;
36593;SDS011;22603;47.900;8.146;2023-03-18T09:58:51;2.85;;;0.90;;
36593;SDS011;22603;47.900;8.146;2023-03-18T10:01:43;2.22;;;0.80;;
36593;SDS011;22603;47.900;8.146;2023-03-18T10:04:37;2.13;;;0.80;;
36593;SDS011;22603;47.900;8.146;2023-03-18T10:07:30;1.55;;;0.85;;
36593;SDS011;22603;47.900;8.146;2023-03-18T10:10:21;3.80;;;0.77;;
36593;SDS011;22603;47.900;8.146;2023-03-18T10:13:14;2.45;;;0.93;;
36593;SDS011;22603;47.900;8.146;2023-03-18T10:16:05;5.30;;;0.90;;
36593;SDS011;22603;47.900;8.146;2023-03-18T10:18:59;2.67;;;0.80;;
36593;SDS011;22603;47.900;8.146;2023-03-18T10:21:53;3.10;;;0.90;;
36593;SDS011;22603;47.900;8.146;2023-03-18T10:24:55;2.55;;;0.70;;
36593;SDS011;22603;47.900;8.146;2023-03-18T10:27:52;2.45;;;0.90;;
36593;SDS011;22603;47.900;8.146;2023-03-18T10:31:00;2.53;;;0.80;;
36593;SDS011;22603;47.900;8.146;2023-03-18T10:33:56;1.88;;;0.80;;
36593;SDS011;22603;47.900;8.146;2023-03-18T10:36:48;4.35;;;1.00;;
36593;SDS011;22603;47.900;8.146;2023-03-18T10:39:37;1.67;;;0.80;;
36593;SDS011;22603;47.900;8.146;2023-03-18T10:42:26;1.60;;;0.73;;
36593;SDS011;22603;47.900;8.146;2023-03-18T10:45:18;2.33;;;0.80;;
36593;SDS011;22603;47.900;8.146;2023-03-18T10:48:09;1.20;;;0.70;;
36593;SDS011;22603;47.900;8.146;2023-03-18T10:51:04;2.70;;;0.98;;
36593;SDS011;22603;47.900;8.146;2023-03-18T10:53:57;2.58;;;0.90;;
36593;SDS011;22603;47.900;8.146;2023-03-18T10:56:53;1.73;;;0.75;;
36593;SDS011;22603;47.900;8.146;2023-03-18T10:59:40;1.83;;;0.82;;
36593;SDS011;22603;47.900;8.146;2023-03-18T11:02:29;3.80;;;0.70;;
36593;SDS011;22603;47.900;8.146;2023-03-18T11:05:21;2.35;;;1.00;;
36593;SDS011;22603;47.900;8.146;2023-03-18T11:08:26;3.13;;;0.88;;
36593;SDS011;22603;47.900;8.146;2023-03-18T11:11:22;2.30;;;0.80;;
36593;SDS011;22603;47.900;8.146;2023-03-18T11:14:17;4.28;;;1.23;;
36593;SDS011;22603;47.900;8.146;2023-03-18T11:17:16;1.83;;;0.80;;
36593;SDS011;22603;47.900;8.146;2023-03-18T11:20:18;2.33;;;0.63;;
36593;SDS011;22603;47.900;8.146;2023-03-18T11:23:13;4.65;;;1.08;;
36593;SDS011;22603;47.900;8.146;2023-03-18T11:26:02;2.60;;;1.00;;
36593;SDS011;22603;47.900;8.146;2023-03-18T11:28:53;4.22;;;0.98;;
36593;SDS011;22603;47.900;8.146;2023-03-18T11:31:51;2.10;;;0.95;;
36593;SDS011;22603;47.900;8.146;2023-03-18T11:34:42;1.40;;;0.77;;
36593;SDS011;22603;47.900;8.146;2023-03-18T11:37:39;2.40;;;1.00;;
36593;SDS011;22603;47.900;8.146;2023-03-18T11:40:27;1.70;;;0.75;;
36593;SDS011;22603;47.900;8.146;2023-03-18T11:43:17;2.33;;;1.00;;
36593;SDS011;22603;47.900;8.146;2023-03-18T11:46:06;4.40;;;1.20;;
36593;SDS011;22603;47.900;8.146;2023-03-18T11:48:56;1.35;;;0.80;;
36593;SDS011;22603;47.900;8.146;2023-03-18T11:51:45;0.93;;;0.70;;
36593;SDS011;22603;47.900;8.146;2023-03-18T11:54:43;2.28;;;0.90;;
36593;SDS011;22603;47.900;8.146;2023-03-18T11:57:44;3.47;;;1.10;;
36593;SDS011;22603;47.900;8.146;2023-03-18T12:00:43;2.72;;;1.02;;
36593;SDS011;22603;47.900;8.146;2023-03-18T12:03:50;4.57;;;1.10;;
36593;SDS011;22603;47.900;8.146;2023-03-18T12:06:53;2.83;;;1.00;;
36593;SDS011;22603;47.900;8.146;2023-03-18T12:09:53;1.85;;;0.90;;
36593;SDS011;22603;47.900;8.146;2023-03-18T12:16:06;2.65;;;0.90;;
36593;SDS011;22603;47.900;8.146;2023-03-18T12:19:08;3.28;;;1.10;;
36593;SDS011;22603;47.900;8.146;2023-03-18T12:22:25;4.45;;;1.00;;
36593;SDS011;22603;47.900;8.146;2023-03-18T12:25:30;3.45;;;1.00;;
36593;SDS011;22603;47.900;8.146;2023-03-18T12:28:42;8.05;;;3.10;;
36593;SDS011;22603;47.900;8.146;2023-03-18T12:31:38;5.72;;;2.20;;
36593;SDS011;22603;47.900;8.146;2023-03-18T12:34:49;1.88;;;1.13;;
36593;SDS011;22603;47.900;8.146;2023-03-18T12:38:01;1.73;;;1.05;;
36593;SDS011;22603;47.900;8.146;2023-03-18T12:40:59;1.58;;;0.98;;
36593;SDS011;22603;47.900;8.146;2023-03-18T12:43:58;3.83;;;1.10;;
36593;SDS011;22603;47.900;8.146;2023-03-18T12:46:58;4.68;;;1.23;;
36593;SDS011;22603;47.900;8.146;2023-03-18T12:49:53;3.47;;;1.05;;
36593;SDS011;22603;47.900;8.146;2023-03-18T12:52:45;3.35;;;0.88;;
36593;SDS011;22603;47.900;8.146;2023-03-18T12:55:36;3.75;;;1.02;;
36593;SDS011;22603;47.900;8.146;2023-03-18T12:58:29;2.63;;;1.05;;
36593;SDS011;22603;47.900;8.146;2023-03-18T13:01:22;2.17;;;1.00;;
36593;SDS011;22603;47.900;8.146;2023-03-18T13:04:16;2.63;;;0.93;;
36593;SDS011;22603;47.900;8.146;2023-03-18T13:07:10;3.88;;;1.05;;
36593;SDS011;22603;47.900;8.146;2023-03-18T13:10:02;3.47;;;1.00;;
36593;SDS011;22603;47.900;8.146;2023-03-18T13:12:59;5.22;;;1.02;;
36593;SDS011;22603;47.900;8.146;2023-03-18T13:15:54;3.65;;;1.13;;
36593;SDS011;22603;47.900;8.146;2023-03-18T13:18:45;2.17;;;0.90;;
36593;SDS011;22603;47.900;8.146;2023-03-18T13:21:38;3.25;;;1.30;;
36593;SDS011;22603;47.900;8.146;2023-03-18T13:24:50;3.53;;;0.90;;
36593;SDS011;22603;47.900;8.146;2023-03-18T13:27:48;3.15;;;1.20;;
36593;SDS011;22603;47.900;8.146;2023-03-18T13:30:55;2.15;;;0.93;;
36593;SDS011;22603;47.900;8.146;2023-03-18T13:33:57;3.78;;;1.10;;
36593;SDS011;22603;47.900;8.146;2023-03-18T13:37:16;2.92;;;1.05;;
36593;SDS011;22603;47.900;8.146;2023-03-18T13:40:31;2.95;;;1.00;;
36593;SDS011;22603;47.900;8.146;2023-03-18T13:43:28;3.15;;;1.00;;
36593;SDS011;22603;47.900;8.146;2023-03-18T13:46:24;1.98;;;1.08;;
36593;SDS011;22603;47.900;8.146;2023-03-18T13:49:15;3.28;;;1.10;;
36593;SDS011;22603;47.900;8.146;2023-03-18T13:52:20;2.90;;;1.02;;
36593;SDS011;22603;47.900;8.146;2023-03-18T13:55:18;1.52;;;0.95;;
36593;SDS011;22603;47.900;8.146;2023-03-18T13:58:19;3.60;;;1.00;;
36593;SDS011;22603;47.900;8.146;2023-03-18T14:01:15;2.35;;;1.20;;
36593;SDS011;22603;47.900;8.146;2023-03-18T14:04:26;3.63;;;1.05;;
36593;SDS011;22603;47.900;8.146;2023-03-18T14:07:18;4.88;;;1.25;;
36593;SDS011;22603;47.900;8.146;2023-03-18T14:10:10;3.78;;;1.05;;
36593;SDS011;22603;47.900;8.146;2023-03-18T14:16:13;2.92;;;1.00;;
36593;SDS011;22603;47.900;8.146;2023-03-18T14:19:05;3.85;;;1.13;;
36593;SDS011;22603;47.900;8.146;2023-03-18T14:22:06;4.22;;;1.60;;
36593;SDS011;22603;47.900;8.146;2023-03-18T14:25:09;5.57;;;1.55;;
36593;SDS011;22603;47.900;8.146;2023-03-18T14:28:21;1.42;;;1.00;;
36593;SDS011;22603;47.900;8.146;2023-03-18T14:34:52;3.03;;;1.20;;
36593;SDS011;22603;47.900;8.146;2023-03-18T14:37:52;2.53;;;1.02;;
36593;SDS011;22603;47.900;8.146;2023-03-18T14:40:46;2.17;;;0.90;;
36593;SDS011;22603;47.900;8.146;2023-03-18T14:43:38;3.45;;;1.20;;
36593;SDS011;22603;47.900;8.146;2023-03-18T14:46:31;2.33;;;1.05;;
36593;SDS011;22603;47.900;8.146;2023-03-18T14:49:38;4.57;;;0.90;;
36593;SDS011;22603;47.900;8.146;2023-03-18T14:52:29;3.40;;;1.10;;
36593;SDS011;22603;47.900;8.146;2023-03-18T14:55:20;3.00;;;1.20;;
36593;SDS011;22603;47.900;8.146;2023-03-18T14:58:15;4.78;;;1.55;;
36593;SDS011;22603;47.900;8.146;2023-03-18T15:01:03;4.18;;;1.23;;
36593;SDS011;22603;47.900;8.146;2023-03-18T15:03:56;3.25;;;1.25;;
36593;SDS011;22603;47.900;8.146;2023-03-18T15:06:45;3.33;;;1.20;;
36593;SDS011;22603;47.900;8.146;2023-03-18T15:09:32;3.92;;;1.58;;
36593;SDS011;22603;47.900;8.146;2023-03-18T15:12:24;6.38;;;1.45;;
36593;SDS011;22603;47.900;8.146;2023-03-18T15:15:13;4.97;;;1.90;;
36593;SDS011;22603;47.900;8.146;2023-03-18T15:18:04;6.75;;;1.52;;
36593;SDS011;22603;47.900;8.146;2023-03-18T15:21:03;4.13;;;1.50;;
36593;SDS011;22603;47.900;8.146;2023-03-18T15:23:56;4.80;;;1.65;;
36593;SDS011;22603;47.900;8.146;2023-03-18T15:26:54;9.50;;;1.98;;
36593;SDS011;22603;47.900;8.146;2023-03-18T15:29:43;16.48;;;5.00;;
36593;SDS011;22603;47.900;8.146;2023-03-18T15:32:41;13.93;;;4.43;;
36593;SDS011;22603;47.900;8.146;2023-03-18T15:35:30;12.88;;;4.00;;
36593;SDS011;22603;47.900;8.146;2023-03-18T15:38:18;8.93;;;2.50;;
36593;SDS011;22603;47.900;8.146;2023-03-18T15:41:07;7.78;;;2.45;;
36593;SDS011;22603;47.900;8.146;2023-03-18T15:43:57;9.32;;;2.80;;
36593;SDS011;22603;47.900;8.146;2023-03-18T15:46:45;8.85;;;2.50;;
36593;SDS011;22603;47.900;8.146;2023-03-18T15:49:32;6.75;;;2.35;;
36593;SDS011;22603;47.900;8.146;2023-03-18T15:52:29;6.75;;;2.50;;
36593;SDS011;22603;47.900;8.146;2023-03-18T15:55:24;6.78;;;2.35;;
36593;SDS011;22603;47.900;8.146;2023-03-18T15:58:17;6.70;;;1.92;;
36593;SDS011;22603;47.900;8.146;2023-03-18T16:01:08;5.78;;;1.60;;
36593;SDS011;22603;47.900;8.146;2023-03-18T16:04:00;4.03;;;1.50;;
36593;SDS011;22603;47.900;8.146;2023-03-18T16:06:47;4.28;;;1.45;;
36593;SDS011;22603;47.900;8.146;2023-03-18T16:09:36;5.47;;;1.40;;
36593;SDS011;22603;47.900;8.146;2023-03-18T16:12:23;3.67;;;1.30;;
36593;SDS011;22603;47.900;8.146;2023-03-18T16:15:14;2.83;;;1.20;;
36593;SDS011;22603;47.900;8.146;2023-03-18T16:18:07;2.95;;;1.33;;
36593;SDS011;22603;47.900;8.146;2023-03-18T16:20:54;3.10;;;1.10;;
36593;SDS011;22603;47.900;8.146;2023-03-18T16:23:41;3.08;;;1.48;;
36593;SDS011;22603;47.900;8.146;2023-03-18T16:26:28;5.25;;;1.33;;
36593;SDS011;22603;47.900;8.146;2023-03-18T16:29:16;6.05;;;1.50;;
36593;SDS011;22603;47.900;8.146;2023-03-18T16:32:09;5.25;;;1.25;;
36593;SDS011;22603;47.900;8.146;2023-03-18T16:34:58;2.08;;;1.27;;
36593;SDS011;22603;47.900;8.146;2023-03-18T16:37:45;2.70;;;1.13;;
36593;SDS011;22603;47.900;8.146;2023-03-18T16:40:33;5.53;;;1.60;;
36593;SDS011;22603;47.900;8.146;2023-03-18T16:43:22;3.75;;;1.30;;
36593;SDS011;22603;47.900;8.146;2023-03-18T16:46:11;11.02;;;1.75;;
36593;SDS011;22603;47.900;8.146;2023-03-18T16:49:01;4.15;;;1.40;;
36593;SDS011;22603;47.900;8.146;2023-03-18T16:51:48;3.45;;;1.30;;
36593;SDS011;22603;47.900;8.146;2023-03-18T16:54:35;7.23;;;2.20;;
36593;SDS011;22603;47.900;8.146;2023-03-18T16:57:23;5.55;;;1.70;;
36593;SDS011;22603;47.900;8.146;2023-03-18T17:00:13;6.67;;;1.57;;
36593;SDS011;22603;47.900;8.146;2023-03-18T17:03:04;2.63;;;1.40;;
36593;SDS011;22603;47.900;8.146;2023-03-18T17:05:56;3.42;;;1.42;;
36593;SDS011;22603;47.900;8.146;2023-03-18T17:08:43;5.13;;;1.60;;
36593;SDS011;22603;47.900;8.146;2023-03-18T17:11:30;5.03;;;1.50;;
36593;SDS011;22603;47.900;8.146;2023-03-18T17:14:25;4.93;;;1.60;;
36593;SDS011;22603;47.900;8.146;2023-03-18T17:17:20;3.17;;;1.40;;
36593;SDS011;22603;47.900;8.146;2023-03-18T17:20:13;4.40;;;1.50;;
36593;SDS011;22603;47.900;8.146;2023-03-18T17:23:03;6.77;;;1.70;;